Sugar Grove, North Carolina
Current Conditions -  °F | °C
As of 2:15 PM on Tuesday 21 Oct 2014 (Local Time) from KTNB Reporting Station
Scattered Clouds Scattered Clouds  
Wind Chill: 54°   Ceiling: Unl
Heat Index: 54°   Visibility: 10mi
Dew Point: 39°   Wind: 14mph
Humidity: 57%   Direction: 290°WNW
Pressure: 29.95"   Gusts: 23mph
Location:  36.26°N, 81.79°W
Report Text: KTNB 211815Z AUTO 29012G20KT 10SM SCT050 12/04 A2995 RMK AO2 T01200037
Loading
Personal Weather Stations






























Interactive Weather Map
Tropical Storm Tracking
New forecast layout! Learn more

10-Day Weather Forecast

Advertisements
Track Severe Weather on mobile